createdAt,value
2022-12-17T00:01:46.696Z,9.33
2022-12-17T00:05:27.665Z,10.90
2022-12-17T00:09:08.093Z,8.87
2022-12-17T00:12:49.278Z,8.87
2022-12-17T00:16:29.594Z,10.07
2022-12-17T00:20:09.701Z,10.10
2022-12-17T00:23:50.066Z,11.07
2022-12-17T00:27:30.669Z,10.40
2022-12-17T00:31:11.565Z,10.97
2022-12-17T00:34:53.728Z,11.40
2022-12-17T00:38:38.549Z,13.03
2022-12-17T00:42:19.162Z,10.83
2022-12-17T00:45:59.312Z,13.60
2022-12-17T00:49:40.118Z,11.60
2022-12-17T00:53:20.437Z,14.53
2022-12-17T00:57:00.936Z,14.00
2022-12-17T01:00:41.400Z,13.93
2022-12-17T01:04:22.154Z,13.37
2022-12-17T01:08:03.986Z,10.97
2022-12-17T01:11:44.606Z,9.33
2022-12-17T01:15:26.501Z,10.60
2022-12-17T01:19:08.401Z,11.03
2022-12-17T01:22:50.618Z,9.90
2022-12-17T01:26:32.352Z,8.73
2022-12-17T01:30:12.772Z,8.77
2022-12-17T01:33:54.047Z,7.83
2022-12-17T01:37:34.820Z,7.00
2022-12-17T01:41:27.947Z,6.67
2022-12-17T01:45:13.758Z,6.43
2022-12-17T01:49:06.563Z,7.97
2022-12-17T01:52:46.879Z,6.57
2022-12-17T01:56:30.678Z,6.97
2022-12-17T02:00:28.709Z,7.30
2022-12-17T02:04:09.948Z,7.97
2022-12-17T02:08:29.266Z,6.93
2022-12-17T02:12:47.160Z,7.40
2022-12-17T02:16:45.727Z,7.57
2022-12-17T02:20:41.247Z,6.33
2022-12-17T02:24:33.200Z,6.77
2022-12-17T02:28:15.564Z,6.17
2022-12-17T02:32:00.126Z,7.63
2022-12-17T02:35:53.484Z,8.23
2022-12-17T02:39:40.582Z,7.07
2022-12-17T02:43:22.449Z,7.80
2022-12-17T02:47:04.866Z,8.97
2022-12-17T02:50:47.484Z,8.87
2022-12-17T02:54:38.216Z,7.37
2022-12-17T02:58:18.881Z,7.77
2022-12-17T03:01:59.469Z,7.57
2022-12-17T03:05:51.047Z,9.63
2022-12-17T03:09:40.714Z,9.00
2022-12-17T03:13:22.413Z,9.43
2022-12-17T03:17:10.912Z,8.53
2022-12-17T03:20:51.372Z,8.13
2022-12-17T03:24:54.748Z,7.17
2022-12-17T03:28:44.171Z,8.93
2022-12-17T03:32:24.625Z,7.20
2022-12-17T03:36:05.167Z,8.70
2022-12-17T03:39:51.165Z,8.47
2022-12-17T03:43:31.345Z,8.00
2022-12-17T03:47:11.810Z,9.37
2022-12-17T03:50:53.239Z,9.37
2022-12-17T03:54:40.786Z,9.17
2022-12-17T03:58:23.013Z,9.07
2022-12-17T04:02:03.485Z,9.33
2022-12-17T04:05:49.752Z,9.43
2022-12-17T04:09:31.195Z,11.03
2022-12-17T04:13:16.555Z,10.33
2022-12-17T04:16:58.747Z,8.90
2022-12-17T04:20:39.258Z,9.13
2022-12-17T04:24:19.811Z,10.77
2022-12-17T04:28:00.511Z,9.77
2022-12-17T04:31:41.277Z,10.83
2022-12-17T04:35:35.781Z,8.53
2022-12-17T04:39:16.248Z,8.87
2022-12-17T04:42:56.785Z,9.73
2022-12-17T04:46:37.168Z,8.80
2022-12-17T04:50:18.536Z,8.23
2022-12-17T04:53:59.170Z,8.37
2022-12-17T04:57:39.661Z,8.73
2022-12-17T05:01:19.974Z,7.30
2022-12-17T05:05:01.166Z,9.40
2022-12-17T05:08:42.707Z,7.90
2022-12-17T05:12:23.304Z,7.97
2022-12-17T05:16:04.109Z,9.17
2022-12-17T05:19:49.748Z,8.97
2022-12-17T05:23:34.466Z,9.83
2022-12-17T05:27:17.116Z,7.97
2022-12-17T05:31:01.212Z,8.03
2022-12-17T05:34:41.850Z,8.23
2022-12-17T05:38:28.733Z,9.00
2022-12-17T05:42:08.978Z,8.57
2022-12-17T05:45:49.390Z,8.60
2022-12-17T05:49:33.139Z,7.53
2022-12-17T05:53:21.788Z,8.10
2022-12-17T05:57:02.263Z,9.37
2022-12-17T06:00:43.165Z,8.77
2022-12-17T06:04:29.056Z,8.60
2022-12-17T06:08:26.126Z,6.97
2022-12-17T06:12:06.468Z,7.10
2022-12-17T06:15:46.876Z,6.70
2022-12-17T06:19:27.596Z,7.43
2022-12-17T06:23:29.217Z,7.73
2022-12-17T06:27:10.326Z,6.07
2022-12-17T06:30:51.428Z,7.43
2022-12-17T06:34:31.799Z,7.90
2022-12-17T06:38:25.508Z,8.07
2022-12-17T06:42:05.912Z,8.40
2022-12-17T06:45:46.505Z,7.83
2022-12-17T06:49:27.787Z,8.60
2022-12-17T06:53:21.573Z,9.47
2022-12-17T06:57:02.245Z,8.40
2022-12-17T07:00:43.745Z,8.20
2022-12-17T07:04:26.626Z,8.37
2022-12-17T07:08:07.871Z,9.33
2022-12-17T07:11:48.291Z,8.80
2022-12-17T07:15:29.234Z,9.83
2022-12-17T07:19:10.589Z,8.13
2022-12-17T07:22:50.915Z,9.37
2022-12-17T07:26:33.154Z,11.20
2022-12-17T07:30:41.668Z,10.27
2022-12-17T07:34:22.001Z,9.23
2022-12-17T07:38:02.358Z,9.53
2022-12-17T07:41:43.077Z,8.50
2022-12-17T07:45:24.816Z,9.57
2022-12-17T07:49:06.517Z,9.60
2022-12-17T07:52:46.581Z,10.43
2022-12-17T07:56:35.465Z,10.63
2022-12-17T08:00:20.163Z,10.37
2022-12-17T08:04:01.927Z,12.83
2022-12-17T08:08:05.404Z,9.63
2022-12-17T08:11:45.625Z,11.50
2022-12-17T08:15:35.398Z,11.70
2022-12-17T08:19:15.702Z,10.53
2022-12-17T08:22:58.699Z,9.37
2022-12-17T08:26:42.046Z,9.10
2022-12-17T08:30:26.376Z,10.70
2022-12-17T08:34:08.368Z,10.17
2022-12-17T08:37:52.899Z,9.50
2022-12-17T08:41:38.310Z,11.80
2022-12-17T08:45:32.032Z,8.70
2022-12-17T08:49:13.865Z,6.67
2022-12-17T08:52:54.035Z,10.03
2022-12-17T08:56:34.204Z,9.90
2022-12-17T09:00:16.395Z,8.00
2022-12-17T09:03:56.864Z,9.90
2022-12-17T09:07:37.711Z,10.23
2022-12-17T09:11:19.259Z,9.73
2022-12-17T09:14:59.775Z,8.77
2022-12-17T09:18:51.315Z,8.80
2022-12-17T09:22:35.202Z,10.13
2022-12-17T09:26:16.198Z,11.50
2022-12-17T09:29:56.717Z,10.80
2022-12-17T09:33:38.105Z,9.90
2022-12-17T09:37:18.764Z,10.00
2022-12-17T09:41:06.947Z,9.77
2022-12-17T09:45:39.149Z,9.47
2022-12-17T09:49:44.516Z,10.23
2022-12-17T09:53:41.135Z,10.20
2022-12-17T09:57:24.749Z,10.67
2022-12-17T10:01:08.495Z,10.73
2022-12-17T10:05:24.426Z,10.53
2022-12-17T10:09:12.608Z,11.03
2022-12-17T10:12:52.997Z,10.63
2022-12-17T10:16:52.102Z,13.37
2022-12-17T10:20:48.542Z,13.13
2022-12-17T10:24:30.069Z,13.10
2022-12-17T10:28:10.690Z,12.77
2022-12-17T10:31:51.811Z,14.30
2022-12-17T10:35:45.069Z,13.47
2022-12-17T10:39:44.940Z,14.27
2022-12-17T10:43:44.387Z,12.90
2022-12-17T10:47:32.179Z,13.40
2022-12-17T10:51:12.632Z,13.23
2022-12-17T10:54:53.679Z,12.30
2022-12-17T10:58:46.587Z,13.30
2022-12-17T11:02:44.234Z,13.70
2022-12-17T11:06:25.545Z,13.80
2022-12-17T11:10:15.143Z,13.23
2022-12-17T11:14:03.391Z,12.23
2022-12-17T11:17:55.154Z,13.63
2022-12-17T11:21:52.082Z,12.60
2022-12-17T11:25:46.670Z,13.43
2022-12-17T11:29:33.191Z,11.73
2022-12-17T11:33:40.645Z,13.17
2022-12-17T11:37:39.992Z,12.27
2022-12-17T11:41:32.014Z,12.20
2022-12-17T11:45:53.988Z,13.07
2022-12-17T11:50:26.248Z,13.00
2022-12-17T11:54:45.475Z,13.43
2022-12-17T11:58:53.470Z,11.33
2022-12-17T12:02:52.201Z,12.20
2022-12-17T12:07:05.004Z,11.43
2022-12-17T12:11:10.452Z,11.87
2022-12-17T12:15:02.650Z,11.97
2022-12-17T12:19:06.334Z,14.70
2022-12-17T12:23:43.199Z,12.63
2022-12-17T12:27:45.382Z,12.60
2022-12-17T12:31:36.434Z,11.43
2022-12-17T12:35:23.314Z,11.37
2022-12-17T12:39:12.868Z,11.13
2022-12-17T12:43:14.358Z,12.93
2022-12-17T12:47:17.150Z,13.00
2022-12-17T12:51:41.735Z,11.77
2022-12-17T12:55:22.394Z,11.23
2022-12-17T12:59:02.671Z,9.90
2022-12-17T13:02:50.496Z,9.93
2022-12-17T13:06:36.373Z,10.70
2022-12-17T13:10:00.670Z,9.40
2022-12-17T13:13:26.429Z,9.80
2022-12-17T13:16:54.399Z,12.07
2022-12-17T13:20:34.982Z,11.83
2022-12-17T13:23:58.835Z,11.30
2022-12-17T13:27:33.754Z,9.77
2022-12-17T13:31:16.181Z,11.53
2022-12-17T13:35:20.408Z,9.40
2022-12-17T13:39:03.698Z,10.10
2022-12-17T13:42:36.327Z,9.10
2022-12-17T13:45:58.586Z,10.23
2022-12-17T13:49:29.874Z,8.30
2022-12-17T13:52:51.974Z,7.27
2022-12-17T13:56:15.670Z,9.00
2022-12-17T13:59:39.425Z,7.37
2022-12-17T14:03:11.931Z,7.53
2022-12-17T14:06:38.344Z,8.00
2022-12-17T14:10:00.585Z,8.70
2022-12-17T14:13:22.433Z,8.13
2022-12-17T14:16:50.619Z,8.67
2022-12-17T14:20:26.092Z,7.57
2022-12-17T14:23:51.251Z,9.63
2022-12-17T14:27:33.227Z,8.47
2022-12-17T14:31:28.156Z,10.27
2022-12-17T14:34:51.958Z,10.30
2022-12-17T14:38:37.445Z,8.77
2022-12-17T14:42:26.263Z,9.03
2022-12-17T14:46:19.266Z,9.63
2022-12-17T14:50:01.948Z,10.67
2022-12-17T14:53:27.562Z,10.33
2022-12-17T14:56:50.492Z,10.77
2022-12-17T15:00:13.721Z,9.93
2022-12-17T15:03:41.932Z,10.73
2022-12-17T15:07:09.049Z,9.87
2022-12-17T15:10:34.004Z,10.07
2022-12-17T15:13:57.036Z,11.07
2022-12-17T15:17:18.928Z,11.10
2022-12-17T15:20:40.879Z,11.43
2022-12-17T15:24:03.178Z,15.13
2022-12-17T15:27:24.963Z,12.80
2022-12-17T15:30:48.964Z,11.53
2022-12-17T15:34:12.232Z,12.63
2022-12-17T15:37:35.611Z,12.73
2022-12-17T15:41:01.017Z,12.20
2022-12-17T15:44:23.946Z,13.73
2022-12-17T15:47:45.751Z,11.27
2022-12-17T15:51:07.922Z,12.87
2022-12-17T15:54:29.814Z,11.47
2022-12-17T15:57:51.605Z,12.00
2022-12-17T16:01:13.719Z,12.60
2022-12-17T16:04:37.777Z,12.37
2022-12-17T16:08:02.232Z,11.63
2022-12-17T16:11:24.142Z,12.70
2022-12-17T16:14:47.025Z,12.10
2022-12-17T16:18:08.881Z,12.53
2022-12-17T16:21:30.696Z,13.00
2022-12-17T16:24:52.870Z,13.43
2022-12-17T16:28:14.768Z,13.50
2022-12-17T16:31:37.407Z,11.80
2022-12-17T16:35:00.745Z,12.77
2022-12-17T16:38:22.727Z,12.40
2022-12-17T16:41:45.507Z,14.77
2022-12-17T16:45:10.038Z,14.40
2022-12-17T16:48:39.585Z,19.95
2022-12-17T16:52:07.646Z,15.40
2022-12-17T16:55:31.917Z,20.70
2022-12-17T16:58:56.610Z,16.33
2022-12-17T17:02:18.758Z,13.20
2022-12-17T17:05:42.662Z,13.13
2022-12-17T17:09:05.515Z,15.37
2022-12-17T17:12:27.500Z,15.30
2022-12-17T17:15:49.723Z,14.70
2022-12-17T17:19:12.656Z,12.83
2022-12-17T17:22:35.639Z,12.30
2022-12-17T17:25:58.707Z,14.77
2022-12-17T17:29:20.894Z,14.80
2022-12-17T17:32:42.954Z,15.00
2022-12-17T17:36:06.936Z,13.43
2022-12-17T17:39:32.927Z,12.63
2022-12-17T17:42:54.722Z,13.60
2022-12-17T17:46:18.969Z,13.40
2022-12-17T17:49:40.863Z,14.47
2022-12-17T17:53:03.693Z,14.90
2022-12-17T17:56:33.527Z,12.37
2022-12-17T17:59:55.321Z,13.63
2022-12-17T18:03:17.546Z,13.87
2022-12-17T18:06:52.963Z,16.30
2022-12-17T18:10:26.036Z,13.33
2022-12-17T18:13:57.172Z,17.03
2022-12-17T18:17:18.977Z,16.27
2022-12-17T18:20:40.774Z,18.10
2022-12-17T18:24:07.747Z,15.23
2022-12-17T18:27:29.558Z,18.27
2022-12-17T18:30:51.427Z,21.90
2022-12-17T18:34:17.182Z,17.90
2022-12-17T18:37:39.231Z,20.07
2022-12-17T18:41:33.231Z,20.37
2022-12-17T18:44:55.340Z,14.97
2022-12-17T18:48:17.862Z,17.30
2022-12-17T18:51:43.596Z,16.83
2022-12-17T18:55:06.257Z,17.23
2022-12-17T18:58:28.167Z,15.23
2022-12-17T19:01:50.940Z,15.90
2022-12-17T19:05:12.895Z,17.53
2022-12-17T19:08:36.561Z,16.77
2022-12-17T19:11:58.891Z,16.70
2022-12-17T19:15:21.798Z,18.37
2022-12-17T19:18:45.011Z,18.80
2022-12-17T19:22:09.393Z,16.10
2022-12-17T19:25:31.270Z,15.73
2022-12-17T19:28:55.415Z,14.43
2022-12-17T19:32:17.921Z,17.13
2022-12-17T19:35:40.827Z,20.20
2022-12-17T19:39:07.219Z,17.43
2022-12-17T19:42:41.120Z,16.20
2022-12-17T19:46:06.533Z,17.80
2022-12-17T19:49:28.427Z,13.73
2022-12-17T19:52:52.575Z,14.30
2022-12-17T19:56:18.101Z,15.13
2022-12-17T19:59:47.938Z,15.63
2022-12-17T20:03:10.044Z,13.93
2022-12-17T20:06:34.907Z,21.30
2022-12-17T20:09:59.828Z,16.10
2022-12-17T20:13:21.670Z,24.02
2022-12-17T20:16:51.966Z,18.23
2022-12-17T20:20:15.134Z,16.23
2022-12-17T20:23:36.940Z,26.87
2022-12-17T20:27:12.884Z,18.40
2022-12-17T20:30:35.133Z,15.07
2022-12-17T20:33:58.617Z,15.80
2022-12-17T20:37:20.438Z,16.60
2022-12-17T20:40:43.288Z,16.73
2022-12-17T20:44:14.325Z,13.63
2022-12-17T20:47:36.147Z,15.10
2022-12-17T20:50:58.032Z,18.13
2022-12-17T20:54:21.969Z,21.60
2022-12-17T20:57:44.859Z,16.73
2022-12-17T21:01:11.462Z,17.07
2022-12-17T21:04:36.422Z,15.13
2022-12-17T21:07:58.351Z,14.87
2022-12-17T21:11:26.430Z,14.17
2022-12-17T21:14:49.449Z,14.10
2022-12-17T21:18:11.232Z,14.10
2022-12-17T21:21:37.344Z,14.53
2022-12-17T21:24:59.189Z,14.00
2022-12-17T21:28:23.998Z,14.57
2022-12-17T21:31:49.434Z,15.90
2022-12-17T21:35:11.517Z,13.83
2022-12-17T21:38:33.357Z,15.73
2022-12-17T21:42:13.928Z,15.27
2022-12-17T21:45:42.133Z,16.40
2022-12-17T21:49:08.133Z,14.70
2022-12-17T21:52:32.287Z,15.50
2022-12-17T21:56:07.876Z,15.73
2022-12-17T21:59:32.049Z,14.23
2022-12-17T22:02:54.177Z,12.93
2022-12-17T22:06:20.789Z,14.73
2022-12-17T22:10:26.748Z,14.43
2022-12-17T22:14:07.263Z,14.33
2022-12-17T22:17:41.731Z,13.23
2022-12-17T22:21:03.713Z,15.17
2022-12-17T22:24:36.433Z,12.90
2022-12-17T22:27:58.665Z,12.30
2022-12-17T22:31:40.964Z,13.67
2022-12-17T22:36:19.921Z,14.77
2022-12-17T22:41:38.507Z,12.67
2022-12-17T22:44:41.151Z,14.10
2022-12-17T22:46:30.316Z,12.93
2022-12-17T22:49:52.404Z,14.23
2022-12-17T22:53:15.071Z,14.27
2022-12-17T22:57:08.382Z,14.13
2022-12-17T23:00:26.659Z,13.07
2022-12-17T23:03:55.619Z,13.93
2022-12-17T23:07:31.904Z,14.67
2022-12-17T23:10:56.535Z,13.30
2022-12-17T23:14:18.670Z,12.07
2022-12-17T23:17:40.514Z,13.33
2022-12-17T23:21:19.023Z,14.27
2022-12-17T23:24:41.884Z,13.07
2022-12-17T23:28:06.781Z,13.37
2022-12-17T23:31:37.477Z,12.97
2022-12-17T23:34:59.350Z,12.83
2022-12-17T23:38:32.228Z,11.90
2022-12-17T23:41:56.925Z,11.73
2022-12-17T23:45:18.795Z,14.37
2022-12-17T23:48:45.545Z,14.27
2022-12-17T23:52:07.959Z,11.73
2022-12-17T23:55:41.675Z,13.20
2022-12-17T23:59:04.325Z,13.17
